Time;durP1;ratioP1;P1;durP2;ratioP2;P2;SDS_P1;SDS_P2;PMS_P1;PMS_P2;Temp;Humidity;BMP_temperature;BMP_pressure;BME280_temperature;BME280_humidity;BME280_pressure;Samples;Min_cycle;Max_cycle;Signal;HPM_P1;HPM_P2
2023/03/18 00:01:06;;;;;;;27.55;14.35;;;4.40;99.90;;;;;;2621820;46;20828;31
2023/03/18 00:03:44;;;;;;;26.23;14.03;;;4.30;99.90;;;;;;2602891;54;20748;31
2023/03/18 00:06:21;;;;;;;25.13;13.70;;;4.20;99.90;;;;;;2602750;54;20026;31
2023/03/18 00:09:01;;;;;;;25.80;15.10;;;4.20;99.90;;;;;;2609371;47;20770;31
2023/03/18 00:11:39;;;;;;;22.17;12.77;;;4.10;99.90;;;;;;2602275;54;20893;31
2023/03/18 00:14:19;;;;;;;30.65;13.57;;;4.00;99.90;;;;;;2621441;47;20035;31
2023/03/18 00:17:01;;;;;;;25.85;13.15;;;4.00;99.90;;;;;;2621452;47;20026;31
2023/03/18 00:19:37;;;;;;;23.03;14.00;;;4.00;99.90;;;;;;2602701;54;20679;31
2023/03/18 00:22:14;;;;;;;29.02;13.82;;;3.90;99.90;;;;;;2602868;54;20026;31
2023/03/18 00:24:53;;;;;;;26.48;13.88;;;3.90;99.90;;;;;;2602835;54;20105;31
2023/03/18 00:30:13;;;;;;;24.97;14.40;;;3.90;99.90;;;;;;2602867;54;20078;31
2023/03/18 00:32:52;;;;;;;26.73;13.93;;;3.80;99.90;;;;;;2621586;47;20235;31
2023/03/18 00:35:27;;;;;;;25.88;12.82;;;3.80;99.90;;;;;;2603047;54;20026;31
2023/03/18 00:38:07;;;;;;;37.25;13.75;;;3.80;99.90;;;;;;2602965;54;20026;31
2023/03/18 00:43:18;;;;;;;26.35;12.65;;;3.70;99.90;;;;;;2620973;47;20891;31
2023/03/18 00:45:57;;;;;;;28.17;13.90;;;3.70;99.90;;;;;;2602556;54;20058;31
2023/03/18 00:48:32;;;;;;;25.90;13.65;;;3.70;99.90;;;;;;2601945;54;20077;31
2023/03/18 00:51:13;;;;;;;32.72;17.67;;;3.60;99.90;;;;;;2602771;54;20757;31
2023/03/18 00:53:55;;;;;;;27.23;15.80;;;3.60;99.90;;;;;;2772839;31;20516;31
2023/03/18 00:56:32;;;;;;;26.75;14.07;;;3.50;99.90;;;;;;2620973;47;20048;31
2023/03/18 00:59:12;;;;;;;30.00;15.82;;;3.50;99.90;;;;;;2601961;54;20864;31
2023/03/18 01:01:52;;;;;;;32.50;20.70;;;3.40;99.90;;;;;;2602781;54;20824;31
2023/03/18 01:04:40;;;;;;;24.70;13.15;;;3.40;99.90;;;;;;2603016;54;20097;31
2023/03/18 01:07:24;;;;;;;26.92;15.10;;;3.40;99.90;;;;;;2603459;54;20844;31
2023/03/18 01:10:01;;;;;;;24.40;14.27;;;3.40;99.90;;;;;;2603803;54;20030;31
2023/03/18 01:12:40;;;;;;;27.35;15.95;;;3.30;99.90;;;;;;2603717;54;20585;31
2023/03/18 01:15:20;;;;;;;36.65;20.80;;;3.20;99.90;;;;;;2603478;54;20026;31
2023/03/18 01:18:02;;;;;;;21.23;11.48;;;3.20;99.90;;;;;;2602723;54;20027;31
2023/03/18 01:20:38;;;;;;;25.08;11.23;;;3.20;99.90;;;;;;2602922;54;20023;31
2023/03/18 01:23:19;;;;;;;23.75;12.80;;;3.10;99.90;;;;;;2603029;54;20879;31
2023/03/18 01:25:58;;;;;;;24.30;12.40;;;3.10;99.90;;;;;;2603600;54;20026;31
2023/03/18 01:28:41;;;;;;;20.40;11.07;;;3.10;99.90;;;;;;2603488;54;21597;31
2023/03/18 01:31:20;;;;;;;22.85;11.07;;;3.10;99.90;;;;;;2603865;54;21159;31
2023/03/18 01:33:57;;;;;;;21.10;11.07;;;3.00;99.90;;;;;;2603629;54;20026;31
2023/03/18 01:36:43;;;;;;;20.50;11.70;;;3.10;99.90;;;;;;2622304;46;20887;31
2023/03/18 01:39:20;;;;;;;20.33;11.00;;;3.10;99.90;;;;;;2603578;54;20026;31
2023/03/18 01:41:57;;;;;;;17.50;9.80;;;3.00;99.90;;;;;;2702109;39;20561;31
2023/03/18 01:44:40;;;;;;;20.35;9.90;;;3.00;99.90;;;;;;2791959;31;20529;31
2023/03/18 01:49:54;;;;;;;;;;;3.00;99.90;;;;;;2603686;54;20132;31
2023/03/18 01:52:36;;;;;;;16.50;9.00;;;3.00;99.90;;;;;;2603530;54;20668;31
2023/03/18 01:55:15;;;;;;;15.32;8.60;;;3.00;99.90;;;;;;2603448;54;20027;31
2023/03/18 01:57:52;;;;;;;18.65;9.20;;;3.00;99.90;;;;;;2603318;54;20097;31
2023/03/18 02:00:31;;;;;;;19.90;8.70;;;3.00;99.90;;;;;;2603391;54;20057;31
2023/03/18 02:03:08;;;;;;;15.27;7.82;;;3.00;99.90;;;;;;2603641;54;20081;31
2023/03/18 02:05:44;;;;;;;18.52;8.70;;;3.00;99.90;;;;;;2621570;46;20855;31
2023/03/18 02:08:23;;;;;;;19.65;8.32;;;3.00;99.90;;;;;;2603318;54;20905;31
2023/03/18 02:11:01;;;;;;;15.80;9.55;;;3.10;99.90;;;;;;2603377;54;20030;31
2023/03/18 02:13:43;;;;;;;16.55;9.30;;;3.00;99.90;;;;;;2603355;54;20073;31
2023/03/18 02:16:20;;;;;;;15.68;8.57;;;3.10;99.90;;;;;;2603525;54;19935;31
2023/03/18 02:18:58;;;;;;;14.80;8.25;;;3.10;99.90;;;;;;2603209;54;20027;31
2023/03/18 02:22:01;;;;;;;15.60;7.78;;;3.10;99.90;;;;;;2603331;54;20109;31
2023/03/18 02:24:46;;;;;;;14.10;8.37;;;3.00;99.90;;;;;;2606118;46;20027;31
2023/03/18 02:27:28;;;;;;;12.40;7.05;;;3.10;99.90;;;;;;2621772;46;20026;31
2023/03/18 02:30:07;;;;;;;18.10;8.15;;;3.00;99.90;;;;;;2602695;54;20852;31
2023/03/18 02:32:46;;;;;;;15.80;7.72;;;3.10;99.90;;;;;;2603289;54;20108;31
2023/03/18 02:35:22;;;;;;;14.93;7.47;;;3.10;99.90;;;;;;2603344;54;20885;31
2023/03/18 02:38:00;;;;;;;14.17;7.07;;;3.20;99.90;;;;;;2602589;54;20033;31
2023/03/18 02:40:36;;;;;;;12.95;7.43;;;3.10;99.90;;;;;;2602472;54;19946;31
2023/03/18 02:43:37;;;;;;;14.60;6.95;;;3.20;99.90;;;;;;2621549;46;20048;31
2023/03/18 02:46:22;;;;;;;14.77;7.15;;;3.20;99.90;;;;;;2621408;46;20030;31
2023/03/18 02:48:57;;;;;;;15.55;7.80;;;3.20;99.90;;;;;;2621534;46;20935;31
2023/03/18 02:51:36;;;;;;;15.10;9.05;;;3.20;99.90;;;;;;2603151;54;20053;31
2023/03/18 02:54:15;;;;;;;15.05;8.25;;;3.20;99.90;;;;;;2603351;54;20035;31
2023/03/18 02:56:51;;;;;;;15.45;7.28;;;3.20;99.90;;;;;;2603268;54;20905;31
2023/03/18 02:59:33;;;;;;;13.45;7.20;;;3.20;99.90;;;;;;2603211;54;20931;31
2023/03/18 03:02:08;;;;;;;11.67;6.70;;;3.20;99.90;;;;;;2621875;46;20034;31
2023/03/18 03:04:46;;;;;;;11.65;7.20;;;3.10;99.90;;;;;;2603352;54;20026;31
2023/03/18 03:07:29;;;;;;;14.90;7.43;;;3.10;99.90;;;;;;2701650;39;20532;31
2023/03/18 03:10:06;;;;;;;13.80;7.32;;;3.10;99.90;;;;;;2603178;54;20023;31
2023/03/18 03:12:44;;;;;;;12.35;6.82;;;3.10;99.90;;;;;;2602917;54;20034;31
2023/03/18 03:15:26;;;;;;;14.77;8.07;;;3.10;99.90;;;;;;2700743;39;20486;31
2023/03/18 03:18:06;;;;;;;11.77;6.82;;;3.10;99.90;;;;;;2603155;54;20026;31
2023/03/18 03:20:45;;;;;;;17.33;7.70;;;3.10;99.90;;;;;;2791534;31;20613;31
2023/03/18 03:23:24;;;;;;;14.77;6.65;;;3.10;99.90;;;;;;2621611;46;20259;31
2023/03/18 03:26:01;;;;;;;13.35;7.03;;;3.10;99.90;;;;;;2603278;54;20033;31
2023/03/18 03:28:41;;;;;;;14.02;6.25;;;3.10;99.90;;;;;;2603157;54;20026;31
2023/03/18 03:31:19;;;;;;;20.90;10.13;;;3.10;99.90;;;;;;2603150;54;20076;31
2023/03/18 03:33:56;;;;;;;25.73;9.23;;;3.10;99.90;;;;;;2602973;54;20832;31
2023/03/18 03:36:33;;;;;;;20.02;8.48;;;3.20;99.90;;;;;;2614166;46;20038;31
2023/03/18 03:39:11;;;;;;;15.95;7.32;;;3.20;99.90;;;;;;2603164;54;20022;31
2023/03/18 03:41:47;;;;;;;25.20;10.68;;;3.20;99.90;;;;;;2603190;54;21173;31
2023/03/18 03:44:24;;;;;;;15.60;8.80;;;3.30;99.90;;;;;;2621249;46;21004;31
2023/03/18 03:47:02;;;;;;;12.50;6.40;;;3.30;99.90;;;;;;2700798;39;22423;31
2023/03/18 03:49:41;;;;;;;15.13;7.55;;;3.30;99.90;;;;;;2603084;54;20081;31
2023/03/18 03:52:18;;;;;;;12.32;5.47;;;3.50;99.90;;;;;;2602416;54;20030;31
2023/03/18 03:54:57;;;;;;;14.25;6.97;;;3.50;99.90;;;;;;2603041;54;20053;31
2023/03/18 03:57:32;;;;;;;11.15;5.65;;;3.60;99.90;;;;;;2602348;54;20057;31
2023/03/18 04:00:12;;;;;;;;;;;3.60;99.90;;;;;;2603102;54;20165;31
2023/03/18 04:02:58;;;;;;;8.57;5.00;;;3.70;99.90;;;;;;2603064;54;19934;31
2023/03/18 04:05:40;;;;;;;9.50;5.32;;;3.70;99.90;;;;;;2701263;39;21493;31
2023/03/18 04:08:18;;;;;;;10.90;6.45;;;3.80;99.90;;;;;;2602957;54;20030;31
2023/03/18 04:10:59;;;;;;;9.85;5.03;;;3.80;99.90;;;;;;2602856;54;20767;31
2023/03/18 04:13:36;;;;;;;11.70;5.45;;;3.90;99.90;;;;;;2621474;47;20038;31
2023/03/18 04:16:13;;;;;;;14.02;5.22;;;3.90;99.90;;;;;;2603054;54;20027;31
2023/03/18 04:18:49;;;;;;;13.07;5.10;;;4.00;99.90;;;;;;2621525;47;20116;31
2023/03/18 04:21:32;;;;;;;11.43;4.95;;;4.00;99.90;;;;;;2602807;54;20034;31
2023/03/18 04:24:11;;;;;;;11.95;5.88;;;4.10;99.90;;;;;;2603098;54;20022;31
2023/03/18 04:26:50;;;;;;;9.93;4.38;;;4.20;99.90;;;;;;2602167;54;20903;31
2023/03/18 04:29:26;;;;;;;8.38;4.97;;;4.20;99.90;;;;;;2602324;54;20845;31
2023/03/18 04:32:03;;;;;;;13.23;5.30;;;4.30;99.90;;;;;;2601959;54;20052;31
2023/03/18 04:34:42;;;;;;;10.50;4.35;;;4.40;99.90;;;;;;2602641;54;20029;31
2023/03/18 04:37:23;;;;;;;10.07;4.88;;;4.40;99.90;;;;;;2602835;54;20060;31
2023/03/18 04:40:04;;;;;;;10.30;4.72;;;4.50;99.90;;;;;;2603251;54;19956;31
2023/03/18 04:42:41;;;;;;;11.65;5.53;;;4.50;99.90;;;;;;2603587;54;20117;31
2023/03/18 04:45:20;;;;;;;9.75;5.00;;;4.50;99.90;;;;;;2603656;54;20022;31
2023/03/18 04:47:55;;;;;;;9.00;4.55;;;4.50;99.90;;;;;;2603600;54;20947;31
2023/03/18 04:50:38;;;;;;;6.55;4.53;;;4.50;99.90;;;;;;2610891;46;20861;31
2023/03/18 04:53:25;;;;;;;11.05;5.55;;;4.60;99.90;;;;;;2603581;54;20101;31
2023/03/18 04:56:02;;;;;;;8.45;5.38;;;4.50;99.90;;;;;;2603503;54;20910;31
2023/03/18 04:58:51;;;;;;;7.35;4.75;;;4.50;99.90;;;;;;2603672;54;20030;31
2023/03/18 05:01:33;;;;;;;10.82;5.63;;;4.50;99.90;;;;;;2603749;54;20073;31
2023/03/18 05:04:10;;;;;;;9.27;4.47;;;4.50;99.90;;;;;;2603445;54;20883;31
2023/03/18 05:06:57;;;;;;;9.05;5.50;;;4.50;99.90;;;;;;2621899;46;20022;31
2023/03/18 05:09:42;;;;;;;12.10;5.40;;;4.50;99.90;;;;;;2603560;54;20564;31
2023/03/18 05:12:24;;;;;;;9.60;5.50;;;4.50;99.90;;;;;;2603656;54;20069;31
2023/03/18 05:15:00;;;;;;;14.25;4.90;;;4.50;99.90;;;;;;2701158;39;20485;31
2023/03/18 05:17:38;;;;;;;12.35;5.18;;;4.60;99.90;;;;;;2622182;46;20027;31
2023/03/18 05:20:19;;;;;;;11.15;5.70;;;4.60;99.90;;;;;;2603693;54;20042;31
2023/03/18 05:22:56;;;;;;;10.82;5.15;;;4.60;99.90;;;;;;2603447;54;20053;31
2023/03/18 05:25:42;;;;;;;12.90;5.30;;;4.60;99.90;;;;;;2603674;54;20571;31
2023/03/18 05:28:18;;;;;;;7.87;4.60;;;4.70;99.90;;;;;;2603405;54;20073;31
2023/03/18 05:31:10;;;;;;;9.90;5.00;;;4.70;99.90;;;;;;2602849;54;20859;31
2023/03/18 05:33:50;;;;;;;12.57;5.18;;;4.70;99.90;;;;;;2603479;54;20585;31
2023/03/18 05:39:11;;;;;;;9.65;4.60;;;4.80;99.90;;;;;;2603547;54;20038;31
2023/03/18 05:41:54;;;;;;;9.15;4.63;;;4.90;99.90;;;;;;2622123;46;20085;31
2023/03/18 05:44:34;;;;;;;9.23;4.72;;;4.90;99.90;;;;;;2603509;54;20563;31
2023/03/18 05:47:15;;;;;;;10.82;4.50;;;4.90;99.90;;;;;;2603381;54;20896;31
2023/03/18 05:50:17;;;;;;;9.27;5.05;;;5.00;99.90;;;;;;2603318;54;20561;31
2023/03/18 05:53:00;;;;;;;8.95;4.40;;;5.10;99.90;;;;;;2701893;39;20462;31
2023/03/18 05:55:41;;;;;;;7.78;4.57;;;5.10;99.90;;;;;;2603391;54;20859;31
2023/03/18 05:58:29;;;;;;;12.07;5.10;;;5.20;99.90;;;;;;2603406;54;20770;31
2023/03/18 06:01:25;;;;;;;8.00;4.53;;;5.20;99.90;;;;;;2603402;54;20900;31
2023/03/18 06:04:02;;;;;;;8.50;5.07;;;5.30;99.90;;;;;;2621867;46;20029;31
2023/03/18 06:06:47;;;;;;;12.57;5.30;;;5.30;99.90;;;;;;2603185;54;20133;31
2023/03/18 06:09:26;;;;;;;15.10;6.28;;;5.40;99.90;;;;;;2701778;39;20624;31
2023/03/18 06:12:02;;;;;;;9.38;4.63;;;5.50;99.90;;;;;;2602764;54;20860;31
2023/03/18 06:14:42;;;;;;;9.52;4.90;;;5.60;99.90;;;;;;2603439;54;20046;31
2023/03/18 06:17:25;;;;;;;12.18;4.60;;;5.70;99.90;;;;;;2603588;54;20592;31
2023/03/18 06:20:01;;;;;;;9.40;4.77;;;5.70;99.90;;;;;;2621501;46;20033;31
2023/03/18 06:22:39;;;;;;;12.63;4.68;;;5.80;99.90;;;;;;2603572;54;20030;31
2023/03/18 06:25:24;;;;;;;12.00;5.05;;;5.90;99.90;;;;;;2603369;54;20037;31
2023/03/18 06:30:54;;;;;;;15.95;6.15;;;6.00;99.90;;;;;;2701896;39;20559;31
2023/03/18 06:33:34;;;;;;;10.15;5.15;;;6.10;99.90;;;;;;2603469;54;20033;31
2023/03/18 06:36:20;;;;;;;9.57;4.63;;;6.20;99.90;;;;;;2621402;46;20114;31
2023/03/18 06:39:00;;;;;;;8.77;4.95;;;6.30;99.90;;;;;;2603234;54;20033;31
2023/03/18 06:41:42;;;;;;;13.50;5.03;;;6.40;99.90;;;;;;2603314;54;20072;31
2023/03/18 06:44:49;;;;;;;12.57;5.70;;;6.50;99.90;;;;;;2603437;54;20027;31
2023/03/18 06:47:30;;;;;;;8.75;5.25;;;6.70;99.90;;;;;;2603197;54;20042;31
2023/03/18 06:50:14;;;;;;;10.35;4.10;;;6.90;99.90;;;;;;2603367;54;19969;31
2023/03/18 06:52:53;;;;;;;8.25;4.07;;;7.20;99.90;;;;;;2603470;54;20863;31
2023/03/18 06:55:38;;;;;;;10.30;3.95;;;7.30;99.90;;;;;;2603543;54;20023;31
2023/03/18 06:58:17;;;;;;;9.00;3.67;;;7.50;99.90;;;;;;2602699;54;20046;31
2023/03/18 07:01:19;;;;;;;9.02;4.22;;;7.60;99.90;;;;;;2603328;54;20031;31
2023/03/18 07:04:01;;;;;;;8.95;4.03;;;7.70;99.90;;;;;;2701437;39;20505;31
2023/03/18 07:06:45;;;;;;;5.88;3.50;;;7.90;99.90;;;;;;2603365;54;20145;31
2023/03/18 07:09:23;;;;;;;6.45;3.53;;;8.10;99.90;;;;;;2603131;54;20898;31
2023/03/18 07:12:03;;;;;;;8.85;3.72;;;8.20;99.90;;;;;;2603365;54;20028;31
2023/03/18 07:14:38;;;;;;;11.73;4.20;;;8.40;99.50;;;;;;2701565;39;20400;31
2023/03/18 07:17:17;;;;;;;6.97;3.63;;;8.50;99.80;;;;;;2603260;54;20813;31
2023/03/18 07:19:55;;;;;;;7.15;2.85;;;8.60;99.60;;;;;;2701163;39;21317;31
2023/03/18 07:22:37;;;;;;;11.38;4.50;;;8.70;98.30;;;;;;2621967;46;20034;31
2023/03/18 07:25:16;;;;;;;10.45;3.25;;;8.70;98.20;;;;;;2603254;54;20057;31
2023/03/18 07:28:02;;;;;;;6.45;3.13;;;8.90;98.20;;;;;;2621775;46;20085;31
2023/03/18 07:30:39;;;;;;;8.33;3.50;;;9.00;98.00;;;;;;2603028;54;20058;31
2023/03/18 07:33:18;;;;;;;9.20;3.28;;;9.10;98.10;;;;;;2603115;54;20818;31
2023/03/18 07:35:59;;;;;;;6.68;3.17;;;9.20;97.80;;;;;;2603144;54;20758;31
2023/03/18 07:41:16;;;;;;;7.80;3.65;;;9.50;97.60;;;;;;2606090;46;20915;31
2023/03/18 07:43:57;;;;;;;6.30;3.30;;;9.60;96.70;;;;;;2603282;54;20030;31
2023/03/18 07:46:34;;;;;;;7.80;3.17;;;9.70;96.10;;;;;;2603353;54;20046;31
2023/03/18 07:52:30;;;;;;;5.10;2.85;;;10.00;95.90;;;;;;2701826;39;20389;31
2023/03/18 07:55:05;;;;;;;5.55;3.80;;;10.20;95.20;;;;;;2603194;54;20053;31
2023/03/18 07:58:12;;;;;;;6.93;3.45;;;10.40;95.70;;;;;;2602825;54;20936;31
2023/03/18 08:00:59;;;;;;;6.40;3.63;;;10.50;93.40;;;;;;2603194;54;20053;31
2023/03/18 08:06:46;;;;;;;8.35;4.15;;;10.60;93.50;;;;;;2603322;54;20030;31
2023/03/18 08:09:29;;;;;;;9.50;4.00;;;10.80;93.90;;;;;;2602637;54;20027;31
2023/03/18 08:12:08;;;;;;;7.20;3.90;;;10.90;92.60;;;;;;2621284;47;20925;31
2023/03/18 08:14:51;;;;;;;7.50;3.40;;;10.90;92.30;;;;;;2603641;54;20755;31
2023/03/18 08:17:30;;;;;;;7.88;3.30;;;10.90;91.90;;;;;;2603957;54;20887;31
2023/03/18 08:20:09;;;;;;;8.52;3.75;;;10.90;91.40;;;;;;2603809;54;20873;31
2023/03/18 08:23:12;;;;;;;6.63;3.10;;;11.00;92.30;;;;;;2622505;46;20030;31
2023/03/18 08:25:52;;;;;;;6.00;3.47;;;11.20;92.00;;;;;;2603977;54;20037;31
2023/03/18 08:28:31;;;;;;;5.80;3.20;;;11.30;91.90;;;;;;2603988;54;20027;31
2023/03/18 08:31:17;;;;;;;4.82;3.20;;;11.30;91.00;;;;;;2602950;54;20033;31
2023/03/18 08:33:59;;;;;;;7.77;2.93;;;11.30;91.00;;;;;;2604032;54;20030;31
2023/03/18 08:36:36;;;;;;;7.68;3.28;;;11.30;90.90;;;;;;2603764;54;20030;31
2023/03/18 08:39:13;;;;;;;5.43;3.53;;;11.30;90.40;;;;;;2603890;54;20896;31
2023/03/18 08:41:51;;;;;;;8.38;3.50;;;11.20;90.50;;;;;;2603778;54;20026;31
2023/03/18 08:47:07;;;;;;;6.82;3.08;;;11.10;90.00;;;;;;2607919;46;19941;31
2023/03/18 08:49:45;;;;;;;7.47;3.45;;;11.20;91.40;;;;;;2622113;46;20031;31
2023/03/18 08:52:24;;;;;;;4.95;3.00;;;11.30;90.70;;;;;;2603732;54;20030;31
2023/03/18 08:55:01;;;;;;;9.95;3.70;;;11.30;90.50;;;;;;2603706;54;20064;31
2023/03/18 08:57:41;;;;;;;6.63;3.80;;;11.30;90.10;;;;;;2603847;54;20030;31
2023/03/18 09:00:22;;;;;;;6.97;3.63;;;11.40;90.00;;;;;;2603686;54;20758;31
2023/03/18 09:02:57;;;;;;;8.30;3.80;;;11.50;88.70;;;;;;2603651;54;20101;31
2023/03/18 09:05:39;;;;;;;9.45;3.70;;;11.60;89.50;;;;;;2622159;46;20026;31
2023/03/18 09:08:17;;;;;;;7.80;3.20;;;11.70;88.60;;;;;;2603768;54;20875;31
2023/03/18 09:10:57;;;;;;;6.88;3.65;;;11.80;87.50;;;;;;2791858;31;20591;31
2023/03/18 09:13:37;;;;;;;12.52;3.28;;;11.90;89.60;;;;;;2622228;46;20905;31
2023/03/18 09:16:16;;;;;;;5.60;3.28;;;12.00;87.90;;;;;;2702016;39;20513;31
2023/03/18 09:18:54;;;;;;;6.40;3.50;;;12.00;87.20;;;;;;2603082;54;20027;31
2023/03/18 09:21:36;;;;;;;7.88;3.28;;;12.10;87.40;;;;;;2603399;54;20031;31
2023/03/18 09:26:45;;;;;;;6.85;2.80;;;12.50;87.10;;;;;;2622043;46;20027;31
2023/03/18 09:29:23;;;;;;;5.85;3.85;;;12.60;84.50;;;;;;2621846;46;20055;31
2023/03/18 09:32:00;;;;;;;6.28;3.20;;;12.80;84.90;;;;;;2603539;54;20048;31
2023/03/18 09:34:47;;;;;;;8.20;3.40;;;12.90;85.80;;;;;;2603521;54;20944;31
2023/03/18 09:37:34;;;;;;;5.13;3.10;;;13.00;84.30;;;;;;2603567;54;20023;31
2023/03/18 09:40:16;;;;;;;8.55;3.30;;;13.10;85.30;;;;;;2603601;54;20892;31
2023/03/18 09:42:55;;;;;;;8.63;3.30;;;13.30;84.50;;;;;;2603567;54;20031;31
2023/03/18 09:45:35;;;;;;;7.38;3.60;;;13.40;84.40;;;;;;2603495;54;20896;31
2023/03/18 09:48:44;;;;;;;8.65;3.75;;;13.40;83.80;;;;;;2621886;46;20026;31
2023/03/18 09:51:29;;;;;;;14.65;4.35;;;13.70;88.60;;;;;;2603199;54;20787;31
2023/03/18 09:54:11;;;;;;;9.70;4.15;;;14.00;86.70;;;;;;2603677;54;20023;31
2023/03/18 09:56:47;;;;;;;6.00;3.37;;;14.00;81.30;;;;;;2603383;54;20056;31
2023/03/18 09:59:24;;;;;;;8.00;3.57;;;14.20;85.60;;;;;;2603494;54;20900;31
2023/03/18 10:02:00;;;;;;;7.55;3.47;;;14.30;80.20;;;;;;2622187;46;20109;31
2023/03/18 10:04:38;;;;;;;8.87;3.90;;;14.40;80.50;;;;;;2603618;54;20022;31
2023/03/18 10:07:16;;;;;;;6.00;3.70;;;14.60;83.40;;;;;;2621821;46;20906;31
2023/03/18 10:09:57;;;;;;;6.63;3.38;;;14.80;82.00;;;;;;2621989;46;20022;31
2023/03/18 10:12:38;;;;;;;5.33;3.10;;;14.90;81.00;;;;;;2603346;54;20035;31
2023/03/18 10:15:17;;;;;;;7.17;3.30;;;15.10;80.40;;;;;;2602834;54;20776;31
2023/03/18 10:20:55;;;;;;;6.00;3.28;;;15.50;77.50;;;;;;2603417;54;20925;31
2023/03/18 10:26:23;;;;;;;6.90;3.53;;;16.00;79.10;;;;;;2603489;54;20568;31
2023/03/18 10:29:07;;;;;;;6.25;3.60;;;16.30;79.00;;;;;;2603225;54;20911;31
2023/03/18 10:35:26;;;;;;;5.28;3.42;;;16.40;73.90;;;;;;2603419;54;20026;31
2023/03/18 10:38:28;;;;;;;6.13;3.83;;;16.30;75.20;;;;;;2603015;54;20072;31
2023/03/18 10:44:44;;;;;;;6.20;3.50;;;16.10;73.80;;;;;;2603185;54;20022;31
2023/03/18 10:54:12;;;;;;;7.05;4.65;;;15.80;74.40;;;;;;2603239;54;20026;31
2023/03/18 10:57:06;;;;;;;6.95;3.55;;;15.60;73.60;;;;;;2603213;54;20770;31
2023/03/18 11:06:11;;;;;;;7.10;4.32;;;15.80;74.40;;;;;;2603095;54;20038;31
2023/03/18 11:12:05;;;;;;;7.85;5.38;;;15.80;74.80;;;;;;2603219;54;20027;31
2023/03/18 11:17:39;;;;;;;17.40;4.53;;;15.80;73.50;;;;;;2621579;46;20022;31
2023/03/18 11:22:03;;;;;;;7.95;3.50;;;15.70;73.40;;;;;;2646615;53;20165;31
2023/03/18 11:24:41;;;;;;;9.23;4.32;;;15.70;74.10;;;;;;2706010;38;21444;31
2023/03/18 11:27:36;;;;;;;7.03;3.90;;;15.80;74.40;;;;;;2712873;38;21451;31
2023/03/18 11:30:49;;;;;;;7.80;4.40;;;15.80;73.70;;;;;;2607516;54;20260;31
2023/03/18 11:33:28;;;;;;;7.35;4.15;;;15.80;73.40;;;;;;2607214;54;20913;31
2023/03/18 11:36:08;;;;;;;7.40;4.23;;;15.80;73.20;;;;;;2625949;46;20037;31
2023/03/18 11:41:25;;;;;;;9.67;4.80;;;15.90;73.50;;;;;;2607466;54;20022;31
2023/03/18 11:44:01;;;;;;;7.20;4.05;;;15.90;73.90;;;;;;2607277;54;20036;31
2023/03/18 11:46:42;;;;;;;7.80;5.15;;;15.90;72.30;;;;;;2626050;46;20022;31
2023/03/18 11:49:22;;;;;;;7.65;4.05;;;15.70;72.80;;;;;;2607257;54;20026;31
2023/03/18 11:52:19;;;;;;;6.07;4.55;;;15.60;73.20;;;;;;2625864;46;20030;31
2023/03/18 11:54:54;;;;;;;6.63;4.20;;;15.50;73.20;;;;;;2607228;54;20027;31
2023/03/18 11:57:39;;;;;;;10.17;4.53;;;15.30;73.10;;;;;;2606701;54;20080;31
2023/03/18 12:00:25;;;;;;;9.90;5.95;;;15.30;74.10;;;;;;2625789;46;20577;31
2023/03/18 12:03:09;;;;;;;11.90;4.40;;;15.20;73.50;;;;;;2607333;54;20045;31
2023/03/18 12:05:52;;;;;;;7.45;3.95;;;15.20;73.10;;;;;;2625964;46;20026;31
2023/03/18 12:08:33;;;;;;;6.70;4.20;;;15.20;74.30;;;;;;2607596;54;20873;31
2023/03/18 12:11:14;;;;;;;7.75;4.63;;;15.10;73.80;;;;;;2607111;54;20832;31
2023/03/18 12:13:47;;;;;;;5.88;3.78;;;15.00;74.00;;;;;;2607244;54;20026;31
2023/03/18 12:17:04;;;;;;;19.08;9.93;;;15.00;73.10;;;;;;2777818;31;20573;31
2023/03/18 12:19:58;;;;;;;10.07;4.82;;;15.00;74.50;;;;;;2607476;54;20022;31
2023/03/18 12:25:29;;;;;;;7.50;5.10;;;15.00;74.30;;;;;;2607352;54;20026;31
2023/03/18 12:28:05;;;;;;;9.50;5.18;;;15.00;74.60;;;;;;2706198;38;22611;31
2023/03/18 12:30:52;;;;;;;6.70;4.47;;;15.10;75.80;;;;;;2607198;54;20908;31
2023/03/18 12:33:57;;;;;;;6.60;4.43;;;15.10;74.80;;;;;;2603683;54;20023;31
2023/03/18 12:36:43;;;;;;;10.05;4.38;;;15.10;74.90;;;;;;2603441;54;20034;31
2023/03/18 12:39:46;;;;;;;6.97;4.78;;;15.10;76.10;;;;;;2603948;54;20046;31
2023/03/18 12:42:29;;;;;;;16.08;5.93;;;15.10;76.00;;;;;;2621937;46;20027;31
2023/03/18 12:45:04;;;;;;;10.40;4.93;;;15.00;75.90;;;;;;2622407;46;20077;31
2023/03/18 12:47:43;;;;;;;7.00;4.50;;;15.10;76.20;;;;;;2603733;54;20100;31
2023/03/18 12:50:21;;;;;;;15.52;7.15;;;15.10;75.60;;;;;;2603716;54;20280;31
2023/03/18 12:53:01;;;;;;;7.80;4.45;;;15.10;75.80;;;;;;2791934;31;20694;31
2023/03/18 12:55:39;;;;;;;8.65;4.50;;;15.10;76.60;;;;;;2603738;54;20831;31
2023/03/18 12:58:19;;;;;;;10.75;4.65;;;15.10;75.20;;;;;;2603572;54;20854;31
2023/03/18 13:01:06;;;;;;;7.20;4.85;;;15.10;76.20;;;;;;2701973;39;20480;31
2023/03/18 13:03:41;;;;;;;9.10;4.80;;;15.20;76.60;;;;;;2603340;54;20033;31
2023/03/18 13:06:22;;;;;;;9.10;5.28;;;15.20;75.60;;;;;;2603674;54;20050;31
2023/03/18 13:09:27;;;;;;;7.38;5.50;;;15.20;76.80;;;;;;2603202;54;20034;31
2023/03/18 13:12:10;;;;;;;9.07;5.07;;;15.20;75.90;;;;;;2603516;54;20524;31
2023/03/18 13:14:52;;;;;;;9.15;4.78;;;15.30;77.40;;;;;;2603405;54;19939;31
2023/03/18 13:17:35;;;;;;;8.32;4.70;;;15.40;75.80;;;;;;2603519;54;20045;31
2023/03/18 13:20:15;;;;;;;9.07;4.72;;;15.40;75.70;;;;;;2621813;46;20042;31
2023/03/18 13:23:08;;;;;;;9.10;4.90;;;15.40;74.80;;;;;;2603321;54;20877;31
2023/03/18 13:25:58;;;;;;;6.95;4.60;;;15.30;74.30;;;;;;2621614;46;20258;31
2023/03/18 13:28:44;;;;;;;7.45;4.70;;;15.40;76.20;;;;;;2622072;46;20037;31
2023/03/18 13:31:27;;;;;;;10.80;5.47;;;15.50;76.80;;;;;;2602855;54;20857;31
2023/03/18 13:34:34;;;;;;;9.75;4.97;;;15.50;76.40;;;;;;2602615;54;20962;31
2023/03/18 13:37:31;;;;;;;6.25;4.60;;;15.50;76.20;;;;;;2621774;46;20924;31
2023/03/18 13:40:49;;;;;;;7.97;5.10;;;15.60;76.60;;;;;;2621867;46;20081;31
2023/03/18 13:43:28;;;;;;;10.77;5.32;;;15.60;77.40;;;;;;2621543;46;20023;31
2023/03/18 13:46:06;;;;;;;8.07;6.00;;;15.60;76.00;;;;;;2603617;54;20029;31
2023/03/18 13:48:42;;;;;;;7.67;5.60;;;15.60;76.60;;;;;;2603511;54;20019;31
2023/03/18 13:51:59;;;;;;;8.95;5.35;;;15.50;75.60;;;;;;2603528;54;20023;31
2023/03/18 13:54:41;;;;;;;11.70;6.20;;;15.50;75.20;;;;;;2603344;54;20584;31
2023/03/18 13:57:35;;;;;;;9.00;4.97;;;15.40;75.70;;;;;;2621793;46;20030;31
2023/03/18 14:00:52;;;;;;;8.38;4.88;;;15.40;75.40;;;;;;2621678;46;20969;31
2023/03/18 14:03:31;;;;;;;12.20;6.00;;;15.40;75.40;;;;;;2603317;54;20068;31
2023/03/18 14:06:43;;;;;;;10.00;5.50;;;15.30;76.60;;;;;;2603074;54;20038;31
2023/03/18 14:09:50;;;;;;;9.02;5.78;;;15.30;76.00;;;;;;2621221;46;20063;31
2023/03/18 14:12:42;;;;;;;8.90;5.70;;;15.30;76.50;;;;;;2603617;54;20026;31
2023/03/18 14:15:17;;;;;;;11.48;6.32;;;15.30;76.50;;;;;;2603460;54;20080;31
2023/03/18 14:17:57;;;;;;;8.75;5.53;;;15.30;77.10;;;;;;2621572;46;20037;31
2023/03/18 14:20:40;;;;;;;8.80;5.30;;;15.30;77.30;;;;;;2621923;46;20030;31
2023/03/18 14:23:35;;;;;;;8.98;5.05;;;15.30;76.60;;;;;;2773311;31;21417;31
2023/03/18 14:26:21;;;;;;;9.88;5.82;;;15.30;78.40;;;;;;2603254;54;20033;31
2023/03/18 14:29:05;;;;;;;9.30;6.03;;;15.30;76.50;;;;;;2701487;39;21358;31
2023/03/18 14:31:57;;;;;;;10.43;5.97;;;15.30;77.50;;;;;;2603483;54;20030;31
2023/03/18 14:34:39;;;;;;;11.63;5.97;;;15.20;77.20;;;;;;2603232;54;20052;31
2023/03/18 14:37:33;;;;;;;11.95;6.40;;;15.30;78.30;;;;;;2701989;39;20684;31
2023/03/18 14:40:10;;;;;;;10.77;6.15;;;15.30;78.90;;;;;;2603034;54;20036;31
2023/03/18 14:42:52;;;;;;;9.90;5.95;;;15.30;78.10;;;;;;2603156;54;20049;31
2023/03/18 14:45:34;;;;;;;11.10;6.25;;;15.30;78.20;;;;;;2603003;54;20034;31
2023/03/18 14:48:16;;;;;;;11.25;6.30;;;15.30;78.20;;;;;;2603172;54;20026;31
2023/03/18 14:50:55;;;;;;;11.95;6.30;;;15.30;78.30;;;;;;2603383;54;20046;31
2023/03/18 14:53:33;;;;;;;9.45;5.63;;;15.30;78.20;;;;;;2621775;46;20074;31
2023/03/18 14:56:18;;;;;;;9.77;6.63;;;15.30;78.70;;;;;;2603124;54;20034;31
2023/03/18 14:58:55;;;;;;;11.90;7.07;;;15.20;78.30;;;;;;2621735;46;20053;31
2023/03/18 15:01:34;;;;;;;8.85;6.60;;;15.20;78.70;;;;;;2603315;54;20077;31
2023/03/18 15:04:15;;;;;;;10.05;6.35;;;15.20;79.30;;;;;;2603352;54;20049;31
2023/03/18 15:06:50;;;;;;;16.55;7.00;;;15.20;79.10;;;;;;2603139;54;20844;31
2023/03/18 15:09:36;;;;;;;9.32;6.30;;;15.10;78.30;;;;;;2701693;39;20458;31
2023/03/18 15:12:20;;;;;;;13.30;6.68;;;15.00;78.90;;;;;;2603418;54;20037;31
2023/03/18 15:14:57;;;;;;;12.93;5.65;;;15.00;79.70;;;;;;2603113;54;19994;31
2023/03/18 15:17:33;;;;;;;8.65;6.03;;;15.00;80.30;;;;;;2602900;54;20919;31
2023/03/18 15:20:14;;;;;;;9.10;6.10;;;15.00;80.00;;;;;;2603179;54;20030;31
2023/03/18 15:22:49;;;;;;;11.52;6.47;;;15.00;79.80;;;;;;2603034;54;20837;31